sensor_id;sensor_type;location;lat;lon;timestamp;temperature;humidity
18882;DHT22;9573;50.948;11.600;2023-03-24T00:00:31;12.20;99.90
18882;DHT22;9573;50.948;11.600;2023-03-24T00:02:59;12.30;99.90
18882;DHT22;9573;50.948;11.600;2023-03-24T00:05:27;12.30;99.90
18882;DHT22;9573;50.948;11.600;2023-03-24T00:07:55;12.30;99.90
18882;DHT22;9573;50.948;11.600;2023-03-24T00:10:25;12.30;99.90
18882;DHT22;9573;50.948;11.600;2023-03-24T00:12:55;12.40;99.90
18882;DHT22;9573;50.948;11.600;2023-03-24T00:15:24;12.40;99.90
18882;DHT22;9573;50.948;11.600;2023-03-24T00:17:51;12.40;99.90
18882;DHT22;9573;50.948;11.600;2023-03-24T00:20:21;12.50;99.90
18882;DHT22;9573;50.948;11.600;2023-03-24T00:22:51;12.50;99.90
18882;DHT22;9573;50.948;11.600;2023-03-24T00:25:22;12.50;99.90
18882;DHT22;9573;50.948;11.600;2023-03-24T00:27:54;12.60;99.90
18882;DHT22;9573;50.948;11.600;2023-03-24T00:30:22;12.60;99.90
18882;DHT22;9573;50.948;11.600;2023-03-24T00:32:50;12.60;99.90
18882;DHT22;9573;50.948;11.600;2023-03-24T00:35:18;12.70;99.90
18882;DHT22;9573;50.948;11.600;2023-03-24T00:37:46;12.70;99.90
18882;DHT22;9573;50.948;11.600;2023-03-24T00:40:16;12.70;99.90
18882;DHT22;9573;50.948;11.600;2023-03-24T00:42:47;12.70;99.90
18882;DHT22;9573;50.948;11.600;2023-03-24T00:45:16;12.80;99.90
18882;DHT22;9573;50.948;11.600;2023-03-24T00:47:45;12.80;99.90
18882;DHT22;9573;50.948;11.600;2023-03-24T00:50:17;12.80;99.90
18882;DHT22;9573;50.948;11.600;2023-03-24T00:52:45;12.80;99.90
18882;DHT22;9573;50.948;11.600;2023-03-24T00:55:14;12.80;99.90
18882;DHT22;9573;50.948;11.600;2023-03-24T00:57:43;12.80;99.90
18882;DHT22;9573;50.948;11.600;2023-03-24T01:00:16;12.80;99.90
18882;DHT22;9573;50.948;11.600;2023-03-24T01:02:46;12.90;99.90
18882;DHT22;9573;50.948;11.600;2023-03-24T01:05:18;12.90;99.90
18882;DHT22;9573;50.948;11.600;2023-03-24T01:07:46;12.90;99.90
18882;DHT22;9573;50.948;11.600;2023-03-24T01:10:18;12.90;99.90
18882;DHT22;9573;50.948;11.600;2023-03-24T01:12:52;12.90;99.90
18882;DHT22;9573;50.948;11.600;2023-03-24T01:15:23;12.90;99.90
18882;DHT22;9573;50.948;11.600;2023-03-24T01:17:52;12.90;99.90
18882;DHT22;9573;50.948;11.600;2023-03-24T01:20:20;12.90;99.90
18882;DHT22;9573;50.948;11.600;2023-03-24T01:22:49;13.00;99.90
18882;DHT22;9573;50.948;11.600;2023-03-24T01:25:18;13.00;99.90
18882;DHT22;9573;50.948;11.600;2023-03-24T01:27:48;13.00;99.90
18882;DHT22;9573;50.948;11.600;2023-03-24T01:30:20;13.10;99.90
18882;DHT22;9573;50.948;11.600;2023-03-24T01:32:49;13.10;99.90
18882;DHT22;9573;50.948;11.600;2023-03-24T01:35:17;13.20;99.90
18882;DHT22;9573;50.948;11.600;2023-03-24T01:37:44;13.20;99.90
18882;DHT22;9573;50.948;11.600;2023-03-24T01:40:16;13.30;99.90
18882;DHT22;9573;50.948;11.600;2023-03-24T01:42:44;13.30;99.90
18882;DHT22;9573;50.948;11.600;2023-03-24T01:48:29;13.50;99.90
18882;DHT22;9573;50.948;11.600;2023-03-24T01:51:03;13.60;99.90
18882;DHT22;9573;50.948;11.600;2023-03-24T01:53:36;13.70;99.90
18882;DHT22;9573;50.948;11.600;2023-03-24T01:56:07;13.70;99.90
18882;DHT22;9573;50.948;11.600;2023-03-24T01:58:37;13.80;99.90
18882;DHT22;9573;50.948;11.600;2023-03-24T02:01:08;13.80;99.90
18882;DHT22;9573;50.948;11.600;2023-03-24T02:03:35;13.80;99.90
18882;DHT22;9573;50.948;11.600;2023-03-24T02:06:04;13.80;99.90
18882;DHT22;9573;50.948;11.600;2023-03-24T02:08:36;13.80;99.90
18882;DHT22;9573;50.948;11.600;2023-03-24T02:11:07;13.80;99.90
18882;DHT22;9573;50.948;11.600;2023-03-24T02:13:34;13.70;99.90
18882;DHT22;9573;50.948;11.600;2023-03-24T02:16:20;13.70;99.90
18882;DHT22;9573;50.948;11.600;2023-03-24T02:19:07;13.70;99.90
18882;DHT22;9573;50.948;11.600;2023-03-24T02:25:55;13.60;99.90
18882;DHT22;9573;50.948;11.600;2023-03-24T02:28:57;13.50;99.90
18882;DHT22;9573;50.948;11.600;2023-03-24T02:31:50;13.40;99.90
18882;DHT22;9573;50.948;11.600;2023-03-24T02:34:54;13.30;99.90
18882;DHT22;9573;50.948;11.600;2023-03-24T02:41:07;13.20;99.90
18882;DHT22;9573;50.948;11.600;2023-03-24T02:43:43;13.20;99.90
18882;DHT22;9573;50.948;11.600;2023-03-24T02:46:20;13.20;99.90
18882;DHT22;9573;50.948;11.600;2023-03-24T02:49:02;13.20;99.90
18882;DHT22;9573;50.948;11.600;2023-03-24T02:51:38;13.10;99.90
18882;DHT22;9573;50.948;11.600;2023-03-24T02:54:15;13.10;99.90
18882;DHT22;9573;50.948;11.600;2023-03-24T02:56:50;13.10;99.90
18882;DHT22;9573;50.948;11.600;2023-03-24T02:59:24;13.10;99.90
18882;DHT22;9573;50.948;11.600;2023-03-24T03:01:59;13.10;99.90
18882;DHT22;9573;50.948;11.600;2023-03-24T03:04:30;13.10;99.90
18882;DHT22;9573;50.948;11.600;2023-03-24T03:07:02;13.10;99.90
18882;DHT22;9573;50.948;11.600;2023-03-24T03:09:36;13.10;99.90
18882;DHT22;9573;50.948;11.600;2023-03-24T03:12:09;13.10;99.90
18882;DHT22;9573;50.948;11.600;2023-03-24T03:14:40;13.10;99.90
18882;DHT22;9573;50.948;11.600;2023-03-24T03:17:12;13.10;99.90
18882;DHT22;9573;50.948;11.600;2023-03-24T03:19:45;13.10;99.90
18882;DHT22;9573;50.948;11.600;2023-03-24T03:22:20;13.10;99.90
18882;DHT22;9573;50.948;11.600;2023-03-24T03:24:52;13.10;99.90
18882;DHT22;9573;50.948;11.600;2023-03-24T03:27:24;13.10;99.90
18882;DHT22;9573;50.948;11.600;2023-03-24T03:29:56;13.20;99.90
18882;DHT22;9573;50.948;11.600;2023-03-24T03:32:29;13.10;99.90
18882;DHT22;9573;50.948;11.600;2023-03-24T03:35:04;13.10;99.90
18882;DHT22;9573;50.948;11.600;2023-03-24T03:37:39;13.20;99.90
18882;DHT22;9573;50.948;11.600;2023-03-24T03:40:15;13.20;99.90
18882;DHT22;9573;50.948;11.600;2023-03-24T03:42:46;13.20;99.90
18882;DHT22;9573;50.948;11.600;2023-03-24T03:45:14;13.20;99.90
18882;DHT22;9573;50.948;11.600;2023-03-24T03:47:41;13.20;99.90
18882;DHT22;9573;50.948;11.600;2023-03-24T03:50:09;13.20;99.90
18882;DHT22;9573;50.948;11.600;2023-03-24T03:52:37;13.20;99.90
18882;DHT22;9573;50.948;11.600;2023-03-24T03:55:07;13.20;99.90
18882;DHT22;9573;50.948;11.600;2023-03-24T03:57:35;13.10;99.90
18882;DHT22;9573;50.948;11.600;2023-03-24T04:00:06;13.10;99.90
18882;DHT22;9573;50.948;11.600;2023-03-24T04:02:46;13.00;99.90
18882;DHT22;9573;50.948;11.600;2023-03-24T04:05:26;12.90;99.90
18882;DHT22;9573;50.948;11.600;2023-03-24T04:08:11;12.80;99.90
18882;DHT22;9573;50.948;11.600;2023-03-24T04:13:51;12.70;99.90
18882;DHT22;9573;50.948;11.600;2023-03-24T04:16:36;12.70;99.90
18882;DHT22;9573;50.948;11.600;2023-03-24T04:19:15;12.70;99.90
18882;DHT22;9573;50.948;11.600;2023-03-24T04:22:10;12.70;99.90
18882;DHT22;9573;50.948;11.600;2023-03-24T04:24:50;12.70;99.90
18882;DHT22;9573;50.948;11.600;2023-03-24T04:27:24;12.70;99.90
18882;DHT22;9573;50.948;11.600;2023-03-24T04:30:01;12.70;99.90
18882;DHT22;9573;50.948;11.600;2023-03-24T04:32:38;12.70;99.90
18882;DHT22;9573;50.948;11.600;2023-03-24T04:35:11;12.70;99.90
18882;DHT22;9573;50.948;11.600;2023-03-24T04:37:51;12.70;99.90
18882;DHT22;9573;50.948;11.600;2023-03-24T04:40:19;12.80;99.90
18882;DHT22;9573;50.948;11.600;2023-03-24T04:42:49;12.80;99.90
18882;DHT22;9573;50.948;11.600;2023-03-24T04:45:18;12.80;99.90
18882;DHT22;9573;50.948;11.600;2023-03-24T04:47:53;12.90;99.90
18882;DHT22;9573;50.948;11.600;2023-03-24T04:50:28;12.80;99.90
18882;DHT22;9573;50.948;11.600;2023-03-24T04:52:56;12.90;99.90
18882;DHT22;9573;50.948;11.600;2023-03-24T04:55:53;12.90;99.90
18882;DHT22;9573;50.948;11.600;2023-03-24T04:58:24;12.90;99.90
18882;DHT22;9573;50.948;11.600;2023-03-24T05:00:51;12.90;99.90
18882;DHT22;9573;50.948;11.600;2023-03-24T05:03:21;12.90;99.90
18882;DHT22;9573;50.948;11.600;2023-03-24T05:05:49;12.90;99.90
18882;DHT22;9573;50.948;11.600;2023-03-24T05:08:17;13.00;99.90
18882;DHT22;9573;50.948;11.600;2023-03-24T05:10:45;13.00;99.90
18882;DHT22;9573;50.948;11.600;2023-03-24T05:13:15;13.00;99.90
18882;DHT22;9573;50.948;11.600;2023-03-24T05:15:42;13.00;99.90
18882;DHT22;9573;50.948;11.600;2023-03-24T05:18:10;13.00;99.90
18882;DHT22;9573;50.948;11.600;2023-03-24T05:20:38;12.90;99.90
18882;DHT22;9573;50.948;11.600;2023-03-24T05:23:05;13.00;99.90
18882;DHT22;9573;50.948;11.600;2023-03-24T05:25:32;13.00;99.90
18882;DHT22;9573;50.948;11.600;2023-03-24T05:27:59;13.00;99.90
18882;DHT22;9573;50.948;11.600;2023-03-24T05:30:27;13.10;99.90
18882;DHT22;9573;50.948;11.600;2023-03-24T05:32:54;13.10;99.90
18882;DHT22;9573;50.948;11.600;2023-03-24T05:35:21;13.10;99.90
18882;DHT22;9573;50.948;11.600;2023-03-24T05:37:50;13.20;99.90
18882;DHT22;9573;50.948;11.600;2023-03-24T05:40:17;13.20;99.90
18882;DHT22;9573;50.948;11.600;2023-03-24T05:42:47;13.30;99.90
18882;DHT22;9573;50.948;11.600;2023-03-24T05:45:15;13.40;99.90
18882;DHT22;9573;50.948;11.600;2023-03-24T05:47:42;13.50;99.90
18882;DHT22;9573;50.948;11.600;2023-03-24T05:50:10;13.50;99.90
18882;DHT22;9573;50.948;11.600;2023-03-24T05:52:37;13.60;99.90
18882;DHT22;9573;50.948;11.600;2023-03-24T05:55:07;13.60;99.90
18882;DHT22;9573;50.948;11.600;2023-03-24T05:57:35;13.80;99.90
18882;DHT22;9573;50.948;11.600;2023-03-24T06:00:03;13.80;99.90
18882;DHT22;9573;50.948;11.600;2023-03-24T06:02:32;13.80;99.90
18882;DHT22;9573;50.948;11.600;2023-03-24T06:04:59;13.80;99.90
18882;DHT22;9573;50.948;11.600;2023-03-24T06:07:28;13.90;99.90
18882;DHT22;9573;50.948;11.600;2023-03-24T06:09:56;13.90;99.90
18882;DHT22;9573;50.948;11.600;2023-03-24T06:12:28;14.00;99.90
18882;DHT22;9573;50.948;11.600;2023-03-24T06:14:56;14.10;99.90
18882;DHT22;9573;50.948;11.600;2023-03-24T06:17:23;14.20;99.90
18882;DHT22;9573;50.948;11.600;2023-03-24T06:19:53;14.20;99.90
18882;DHT22;9573;50.948;11.600;2023-03-24T06:22:29;14.40;99.90
18882;DHT22;9573;50.948;11.600;2023-03-24T06:24:57;14.80;99.90
18882;DHT22;9573;50.948;11.600;2023-03-24T06:27:25;14.80;99.90
18882;DHT22;9573;50.948;11.600;2023-03-24T06:29:56;14.90;99.90
18882;DHT22;9573;50.948;11.600;2023-03-24T06:32:24;14.90;99.90
18882;DHT22;9573;50.948;11.600;2023-03-24T06:34:51;14.90;99.90
18882;DHT22;9573;50.948;11.600;2023-03-24T06:37:21;14.80;99.90
18882;DHT22;9573;50.948;11.600;2023-03-24T06:39:48;14.80;99.90
18882;DHT22;9573;50.948;11.600;2023-03-24T06:42:16;14.70;99.90
18882;DHT22;9573;50.948;11.600;2023-03-24T06:44:43;14.70;99.90
18882;DHT22;9573;50.948;11.600;2023-03-24T06:47:12;14.80;99.90
18882;DHT22;9573;50.948;11.600;2023-03-24T06:49:40;14.70;99.90
18882;DHT22;9573;50.948;11.600;2023-03-24T06:52:07;14.70;99.90
18882;DHT22;9573;50.948;11.600;2023-03-24T06:54:34;14.70;99.90
18882;DHT22;9573;50.948;11.600;2023-03-24T06:57:02;14.70;99.90
18882;DHT22;9573;50.948;11.600;2023-03-24T06:59:29;14.70;99.90
18882;DHT22;9573;50.948;11.600;2023-03-24T07:01:56;14.80;99.90
18882;DHT22;9573;50.948;11.600;2023-03-24T07:04:25;14.80;99.90
18882;DHT22;9573;50.948;11.600;2023-03-24T07:06:52;14.80;99.90
18882;DHT22;9573;50.948;11.600;2023-03-24T07:09:20;14.80;99.90
18882;DHT22;9573;50.948;11.600;2023-03-24T07:11:47;14.70;99.90
18882;DHT22;9573;50.948;11.600;2023-03-24T07:14:14;14.70;99.90
18882;DHT22;9573;50.948;11.600;2023-03-24T07:16:41;14.80;99.90
18882;DHT22;9573;50.948;11.600;2023-03-24T07:19:08;14.80;99.90
18882;DHT22;9573;50.948;11.600;2023-03-24T07:21:37;14.80;99.90
18882;DHT22;9573;50.948;11.600;2023-03-24T07:24:04;14.80;99.90
18882;DHT22;9573;50.948;11.600;2023-03-24T07:26:31;14.90;99.90
18882;DHT22;9573;50.948;11.600;2023-03-24T07:28:58;14.90;99.90
18882;DHT22;9573;50.948;11.600;2023-03-24T07:31:26;14.90;99.90
18882;DHT22;9573;50.948;11.600;2023-03-24T07:33:53;14.90;99.90
18882;DHT22;9573;50.948;11.600;2023-03-24T07:36:20;14.80;99.90
18882;DHT22;9573;50.948;11.600;2023-03-24T07:38:48;14.80;99.90
18882;DHT22;9573;50.948;11.600;2023-03-24T07:41:15;14.70;99.90
18882;DHT22;9573;50.948;11.600;2023-03-24T07:43:42;14.70;99.90
18882;DHT22;9573;50.948;11.600;2023-03-24T07:46:10;14.80;99.90
18882;DHT22;9573;50.948;11.600;2023-03-24T07:48:37;14.90;99.90
18882;DHT22;9573;50.948;11.600;2023-03-24T07:51:04;15.00;99.90
18882;DHT22;9573;50.948;11.600;2023-03-24T07:53:32;15.20;99.90
18882;DHT22;9573;50.948;11.600;2023-03-24T07:56:00;15.30;99.90
18882;DHT22;9573;50.948;11.600;2023-03-24T07:58:27;15.20;99.90
18882;DHT22;9573;50.948;11.600;2023-03-24T08:00:54;15.30;99.90
18882;DHT22;9573;50.948;11.600;2023-03-24T08:03:21;15.40;99.90
18882;DHT22;9573;50.948;11.600;2023-03-24T08:05:49;15.50;99.90
18882;DHT22;9573;50.948;11.600;2023-03-24T08:08:17;15.50;99.90
18882;DHT22;9573;50.948;11.600;2023-03-24T08:10:44;15.40;99.90
18882;DHT22;9573;50.948;11.600;2023-03-24T08:13:12;15.60;99.90
18882;DHT22;9573;50.948;11.600;2023-03-24T08:15:39;15.70;99.90
18882;DHT22;9573;50.948;11.600;2023-03-24T08:18:07;15.90;99.90
18882;DHT22;9573;50.948;11.600;2023-03-24T08:20:34;16.30;99.90
18882;DHT22;9573;50.948;11.600;2023-03-24T08:23:02;16.60;99.90
18882;DHT22;9573;50.948;11.600;2023-03-24T08:25:31;16.50;99.90
18882;DHT22;9573;50.948;11.600;2023-03-24T08:27:59;16.40;99.90
18882;DHT22;9573;50.948;11.600;2023-03-24T08:30:28;16.30;99.90
18882;DHT22;9573;50.948;11.600;2023-03-24T08:32:57;16.20;99.90
18882;DHT22;9573;50.948;11.600;2023-03-24T08:35:27;16.30;99.90
18882;DHT22;9573;50.948;11.600;2023-03-24T08:37:56;16.40;99.90
18882;DHT22;9573;50.948;11.600;2023-03-24T08:40:24;16.80;99.90
18882;DHT22;9573;50.948;11.600;2023-03-24T08:42:54;17.10;99.90
18882;DHT22;9573;50.948;11.600;2023-03-24T08:45:25;17.40;99.90
18882;DHT22;9573;50.948;11.600;2023-03-24T08:47:56;17.70;99.90
18882;DHT22;9573;50.948;11.600;2023-03-24T08:50:26;18.30;99.90
18882;DHT22;9573;50.948;11.600;2023-03-24T08:52:55;19.00;99.90
18882;DHT22;9573;50.948;11.600;2023-03-24T08:55:23;19.20;99.90
18882;DHT22;9573;50.948;11.600;2023-03-24T08:57:51;19.40;99.90
18882;DHT22;9573;50.948;11.600;2023-03-24T09:00:19;20.30;99.90
18882;DHT22;9573;50.948;11.600;2023-03-24T09:02:50;22.10;99.90
18882;DHT22;9573;50.948;11.600;2023-03-24T09:05:20;22.40;99.90
18882;DHT22;9573;50.948;11.600;2023-03-24T09:07:48;22.40;99.90
18882;DHT22;9573;50.948;11.600;2023-03-24T09:10:16;21.90;99.90
18882;DHT22;9573;50.948;11.600;2023-03-24T09:12:45;22.30;99.90
18882;DHT22;9573;50.948;11.600;2023-03-24T09:15:12;21.90;99.90
18882;DHT22;9573;50.948;11.600;2023-03-24T09:17:40;21.40;99.90
18882;DHT22;9573;50.948;11.600;2023-03-24T09:20:11;21.20;99.90
18882;DHT22;9573;50.948;11.600;2023-03-24T09:22:39;21.50;99.90
18882;DHT22;9573;50.948;11.600;2023-03-24T09:25:09;21.70;99.90
18882;DHT22;9573;50.948;11.600;2023-03-24T09:27:38;21.80;99.90
18882;DHT22;9573;50.948;11.600;2023-03-24T09:30:06;22.00;99.90
18882;DHT22;9573;50.948;11.600;2023-03-24T09:32:34;22.10;99.90
18882;DHT22;9573;50.948;11.600;2023-03-24T09:35:02;21.90;99.90
18882;DHT22;9573;50.948;11.600;2023-03-24T09:37:31;21.30;99.90
18882;DHT22;9573;50.948;11.600;2023-03-24T09:39:58;20.80;99.90
18882;DHT22;9573;50.948;11.600;2023-03-24T09:42:29;20.50;99.90
18882;DHT22;9573;50.948;11.600;2023-03-24T09:45:03;20.20;99.90
18882;DHT22;9573;50.948;11.600;2023-03-24T09:47:35;19.80;99.90
18882;DHT22;9573;50.948;11.600;2023-03-24T09:50:08;19.40;99.90
18882;DHT22;9573;50.948;11.600;2023-03-24T09:52:48;19.10;99.90
18882;DHT22;9573;50.948;11.600;2023-03-24T09:55:21;19.00;99.90
18882;DHT22;9573;50.948;11.600;2023-03-24T09:57:50;18.90;99.90
18882;DHT22;9573;50.948;11.600;2023-03-24T10:00:21;19.20;99.90
18882;DHT22;9573;50.948;11.600;2023-03-24T10:02:50;19.60;99.90
18882;DHT22;9573;50.948;11.600;2023-03-24T10:05:22;20.20;99.90
18882;DHT22;9573;50.948;11.600;2023-03-24T10:07:58;21.80;99.90
18882;DHT22;9573;50.948;11.600;2023-03-24T10:10:32;23.50;99.90
18882;DHT22;9573;50.948;11.600;2023-03-24T10:13:06;25.10;99.90
18882;DHT22;9573;50.948;11.600;2023-03-24T10:15:38;26.30;99.90
18882;DHT22;9573;50.948;11.600;2023-03-24T10:18:22;26.40;97.70
18882;DHT22;9573;50.948;11.600;2023-03-24T10:20:59;26.40;96.20
18882;DHT22;9573;50.948;11.600;2023-03-24T10:23:37;26.50;94.80
18882;DHT22;9573;50.948;11.600;2023-03-24T10:26:16;25.90;94.70
18882;DHT22;9573;50.948;11.600;2023-03-24T10:28:55;25.40;95.20
18882;DHT22;9573;50.948;11.600;2023-03-24T10:31:32;25.80;94.50
18882;DHT22;9573;50.948;11.600;2023-03-24T10:34:00;26.40;93.60
18882;DHT22;9573;50.948;11.600;2023-03-24T10:36:28;26.20;93.40
18882;DHT22;9573;50.948;11.600;2023-03-24T10:38:57;25.20;93.30
18882;DHT22;9573;50.948;11.600;2023-03-24T10:41:26;24.30;94.80
18882;DHT22;9573;50.948;11.600;2023-03-24T10:43:55;23.40;95.90
18882;DHT22;9573;50.948;11.600;2023-03-24T10:46:26;22.70;97.10
18882;DHT22;9573;50.948;11.600;2023-03-24T10:49:07;22.50;98.10
18882;DHT22;9573;50.948;11.600;2023-03-24T10:51:35;22.00;99.00
18882;DHT22;9573;50.948;11.600;2023-03-24T10:54:11;21.60;99.90
18882;DHT22;9573;50.948;11.600;2023-03-24T10:56:43;21.00;99.90
18882;DHT22;9573;50.948;11.600;2023-03-24T10:59:20;20.60;99.90
18882;DHT22;9573;50.948;11.600;2023-03-24T11:01:58;20.40;99.90
18882;DHT22;9573;50.948;11.600;2023-03-24T11:04:28;20.20;99.90
18882;DHT22;9573;50.948;11.600;2023-03-24T11:07:02;19.90;99.90
18882;DHT22;9573;50.948;11.600;2023-03-24T11:09:40;19.70;99.90
18882;DHT22;9573;50.948;11.600;2023-03-24T11:12:23;19.70;99.90
18882;DHT22;9573;50.948;11.600;2023-03-24T11:14:51;19.80;99.90
18882;DHT22;9573;50.948;11.600;2023-03-24T11:17:26;19.70;99.90
18882;DHT22;9573;50.948;11.600;2023-03-24T11:19:57;19.40;99.90
18882;DHT22;9573;50.948;11.600;2023-03-24T11:22:24;18.90;99.90
18882;DHT22;9573;50.948;11.600;2023-03-24T11:24:55;17.90;99.90
18882;DHT22;9573;50.948;11.600;2023-03-24T11:27:22;17.20;99.90
18882;DHT22;9573;50.948;11.600;2023-03-24T11:29:52;16.70;99.90
18882;DHT22;9573;50.948;11.600;2023-03-24T11:32:22;16.20;99.90
18882;DHT22;9573;50.948;11.600;2023-03-24T11:34:58;15.90;99.90
18882;DHT22;9573;50.948;11.600;2023-03-24T11:37:32;15.50;99.90
18882;DHT22;9573;50.948;11.600;2023-03-24T11:40:21;15.20;99.90
18882;DHT22;9573;50.948;11.600;2023-03-24T11:42:52;14.90;99.90
18882;DHT22;9573;50.948;11.600;2023-03-24T11:45:27;14.70;99.90
18882;DHT22;9573;50.948;11.600;2023-03-24T11:47:57;14.60;99.90
18882;DHT22;9573;50.948;11.600;2023-03-24T11:50:27;14.40;99.90
18882;DHT22;9573;50.948;11.600;2023-03-24T11:53:01;14.20;99.90
18882;DHT22;9573;50.948;11.600;2023-03-24T11:55:42;14.00;99.90
18882;DHT22;9573;50.948;11.600;2023-03-24T11:58:18;13.80;99.90
18882;DHT22;9573;50.948;11.600;2023-03-24T12:00:55;13.60;99.90
18882;DHT22;9573;50.948;11.600;2023-03-24T12:06:59;13.50;99.90
18882;DHT22;9573;50.948;11.600;2023-03-24T12:09:42;13.40;99.90
18882;DHT22;9573;50.948;11.600;2023-03-24T12:12:26;13.40;99.90
18882;DHT22;9573;50.948;11.600;2023-03-24T12:15:14;13.50;99.90
18882;DHT22;9573;50.948;11.600;2023-03-24T12:17:55;13.60;99.90
18882;DHT22;9573;50.948;11.600;2023-03-24T12:20:30;13.70;99.90
18882;DHT22;9573;50.948;11.600;2023-03-24T12:23:00;13.80;99.90
18882;DHT22;9573;50.948;11.600;2023-03-24T12:25:54;13.90;99.90
18882;DHT22;9573;50.948;11.600;2023-03-24T12:28:42;14.20;99.90
18882;DHT22;9573;50.948;11.600;2023-03-24T12:31:38;14.20;99.90
18882;DHT22;9573;50.948;11.600;2023-03-24T12:37:25;13.90;99.90
18882;DHT22;9573;50.948;11.600;2023-03-24T12:40:10;14.10;99.90
18882;DHT22;9573;50.948;11.600;2023-03-24T12:42:57;14.20;99.90
18882;DHT22;9573;50.948;11.600;2023-03-24T12:45:35;14.40;99.90
18882;DHT22;9573;50.948;11.600;2023-03-24T12:48:17;14.40;99.90
18882;DHT22;9573;50.948;11.600;2023-03-24T12:51:04;14.40;99.90
18882;DHT22;9573;50.948;11.600;2023-03-24T12:53:45;14.50;99.90
18882;DHT22;9573;50.948;11.600;2023-03-24T12:56:23;14.90;99.90
18882;DHT22;9573;50.948;11.600;2023-03-24T12:58:55;15.10;99.90
18882;DHT22;9573;50.948;11.600;2023-03-24T13:01:31;15.10;99.90
18882;DHT22;9573;50.948;11.600;2023-03-24T13:04:06;15.10;99.90
18882;DHT22;9573;50.948;11.600;2023-03-24T13:06:40;15.10;99.90
18882;DHT22;9573;50.948;11.600;2023-03-24T13:09:16;15.20;99.90
18882;DHT22;9573;50.948;11.600;2023-03-24T13:11:54;15.70;99.90
18882;DHT22;9573;50.948;11.600;2023-03-24T13:14:29;16.00;99.90
18882;DHT22;9573;50.948;11.600;2023-03-24T13:17:04;16.10;99.90
18882;DHT22;9573;50.948;11.600;2023-03-24T13:19:33;16.30;99.90
18882;DHT22;9573;50.948;11.600;2023-03-24T13:22:03;17.10;99.90
18882;DHT22;9573;50.948;11.600;2023-03-24T13:24:32;17.80;99.90
18882;DHT22;9573;50.948;11.600;2023-03-24T13:27:05;17.70;99.90
18882;DHT22;9573;50.948;11.600;2023-03-24T13:30:06;17.60;99.90
18882;DHT22;9573;50.948;11.600;2023-03-24T13:32:50;17.30;99.90
18882;DHT22;9573;50.948;11.600;2023-03-24T13:35:29;17.30;99.90
18882;DHT22;9573;50.948;11.600;2023-03-24T13:38:11;17.30;99.90
18882;DHT22;9573;50.948;11.600;2023-03-24T13:40:50;17.30;99.90
18882;DHT22;9573;50.948;11.600;2023-03-24T13:43:21;17.10;99.90
18882;DHT22;9573;50.948;11.600;2023-03-24T13:45:51;16.90;99.90
18882;DHT22;9573;50.948;11.600;2023-03-24T13:48:30;16.50;99.90
18882;DHT22;9573;50.948;11.600;2023-03-24T13:51:01;16.40;99.90
18882;DHT22;9573;50.948;11.600;2023-03-24T13:53:35;16.40;99.90
18882;DHT22;9573;50.948;11.600;2023-03-24T13:56:06;16.20;99.90
18882;DHT22;9573;50.948;11.600;2023-03-24T13:58:50;15.90;99.90
18882;DHT22;9573;50.948;11.600;2023-03-24T14:01:34;15.60;99.90
18882;DHT22;9573;50.948;11.600;2023-03-24T14:04:25;15.30;99.90
18882;DHT22;9573;50.948;11.600;2023-03-24T14:06:55;15.10;99.90
18882;DHT22;9573;50.948;11.600;2023-03-24T14:09:24;15.10;99.90
18882;DHT22;9573;50.948;11.600;2023-03-24T14:12:16;15.20;99.90
18882;DHT22;9573;50.948;11.600;2023-03-24T14:15:13;15.20;99.90
18882;DHT22;9573;50.948;11.600;2023-03-24T14:17:43;15.40;99.90
18882;DHT22;9573;50.948;11.600;2023-03-24T14:23:21;15.80;99.90
18882;DHT22;9573;50.948;11.600;2023-03-24T14:26:01;16.20;99.90
18882;DHT22;9573;50.948;11.600;2023-03-24T14:28:32;16.50;99.90
18882;DHT22;9573;50.948;11.600;2023-03-24T14:31:19;16.70;99.90
18882;DHT22;9573;50.948;11.600;2023-03-24T14:34:06;16.80;99.90
18882;DHT22;9573;50.948;11.600;2023-03-24T14:36:38;17.10;99.90
18882;DHT22;9573;50.948;11.600;2023-03-24T14:39:08;17.10;99.90
18882;DHT22;9573;50.948;11.600;2023-03-24T14:41:40;16.80;99.90
18882;DHT22;9573;50.948;11.600;2023-03-24T14:44:09;16.70;99.90
18882;DHT22;9573;50.948;11.600;2023-03-24T14:46:38;16.60;99.90
18882;DHT22;9573;50.948;11.600;2023-03-24T14:49:20;16.50;99.90
18882;DHT22;9573;50.948;11.600;2023-03-24T14:51:58;16.20;99.90
18882;DHT22;9573;50.948;11.600;2023-03-24T14:54:31;16.00;99.90
18882;DHT22;9573;50.948;11.600;2023-03-24T14:57:01;15.90;99.90
18882;DHT22;9573;50.948;11.600;2023-03-24T14:59:44;16.00;99.90
18882;DHT22;9573;50.948;11.600;2023-03-24T15:02:24;16.30;99.90
18882;DHT22;9573;50.948;11.600;2023-03-24T15:05:16;16.80;99.90
18882;DHT22;9573;50.948;11.600;2023-03-24T15:08:01;17.00;99.90
18882;DHT22;9573;50.948;11.600;2023-03-24T15:10:37;17.00;99.90
18882;DHT22;9573;50.948;11.600;2023-03-24T15:13:27;16.90;99.90
18882;DHT22;9573;50.948;11.600;2023-03-24T15:15:55;16.90;99.90
18882;DHT22;9573;50.948;11.600;2023-03-24T15:18:23;16.90;99.90
18882;DHT22;9573;50.948;11.600;2023-03-24T15:20:51;17.00;99.90
18882;DHT22;9573;50.948;11.600;2023-03-24T15:23:21;16.90;99.90
18882;DHT22;9573;50.948;11.600;2023-03-24T15:25:50;16.90;99.90
18882;DHT22;9573;50.948;11.600;2023-03-24T15:28:19;16.80;99.90
18882;DHT22;9573;50.948;11.600;2023-03-24T15:30:48;16.90;99.90
18882;DHT22;9573;50.948;11.600;2023-03-24T15:33:16;16.80;99.90
18882;DHT22;9573;50.948;11.600;2023-03-24T15:35:44;16.70;99.90
18882;DHT22;9573;50.948;11.600;2023-03-24T15:38:26;16.60;99.90
18882;DHT22;9573;50.948;11.600;2023-03-24T15:40:57;16.30;99.90
18882;DHT22;9573;50.948;11.600;2023-03-24T15:43:25;16.20;99.90
18882;DHT22;9573;50.948;11.600;2023-03-24T15:45:54;15.90;99.90
18882;DHT22;9573;50.948;11.600;2023-03-24T15:48:25;15.70;99.90
18882;DHT22;9573;50.948;11.600;2023-03-24T15:50:59;15.60;99.90
18882;DHT22;9573;50.948;11.600;2023-03-24T15:53:29;15.50;99.90
18882;DHT22;9573;50.948;11.600;2023-03-24T15:56:16;15.50;99.90
18882;DHT22;9573;50.948;11.600;2023-03-24T15:58:48;15.40;99.90
18882;DHT22;9573;50.948;11.600;2023-03-24T16:01:21;15.40;99.90
18882;DHT22;9573;50.948;11.600;2023-03-24T16:03:52;15.50;99.90
18882;DHT22;9573;50.948;11.600;2023-03-24T16:06:25;15.50;99.90
18882;DHT22;9573;50.948;11.600;2023-03-24T16:08:59;15.50;99.90
18882;DHT22;9573;50.948;11.600;2023-03-24T16:11:27;15.30;99.90
18882;DHT22;9573;50.948;11.600;2023-03-24T16:13:55;15.30;99.90
18882;DHT22;9573;50.948;11.600;2023-03-24T16:16:25;15.20;99.90
18882;DHT22;9573;50.948;11.600;2023-03-24T16:18:53;15.20;99.90
18882;DHT22;9573;50.948;11.600;2023-03-24T16:21:24;15.10;99.90
18882;DHT22;9573;50.948;11.600;2023-03-24T16:23:53;15.00;99.90
18882;DHT22;9573;50.948;11.600;2023-03-24T16:26:25;14.90;99.90